sensor_id;sensor_type;location;lat;lon;timestamp;temperature;humidity
29917;DHT22;16786;49.466;11.068;2023-01-01T00:00:43;12.40;99.90
29917;DHT22;16786;49.466;11.068;2023-01-01T00:03:11;12.40;99.90
29917;DHT22;16786;49.466;11.068;2023-01-01T00:05:39;12.30;99.90
29917;DHT22;16786;49.466;11.068;2023-01-01T00:08:06;12.30;99.90
29917;DHT22;16786;49.466;11.068;2023-01-01T00:10:33;12.30;99.90
29917;DHT22;16786;49.466;11.068;2023-01-01T00:13:01;12.20;99.90
29917;DHT22;16786;49.466;11.068;2023-01-01T00:15:28;12.20;99.90
29917;DHT22;16786;49.466;11.068;2023-01-01T00:17:56;12.20;99.90
29917;DHT22;16786;49.466;11.068;2023-01-01T00:20:24;12.20;99.90
29917;DHT22;16786;49.466;11.068;2023-01-01T00:22:59;12.20;99.90
29917;DHT22;16786;49.466;11.068;2023-01-01T00:25:26;12.30;99.90
29917;DHT22;16786;49.466;11.068;2023-01-01T00:27:53;12.30;99.90
29917;DHT22;16786;49.466;11.068;2023-01-01T00:30:21;12.30;99.90
29917;DHT22;16786;49.466;11.068;2023-01-01T00:32:51;12.30;99.90
29917;DHT22;16786;49.466;11.068;2023-01-01T00:35:26;12.30;99.90
29917;DHT22;16786;49.466;11.068;2023-01-01T00:37:54;12.30;99.90
29917;DHT22;16786;49.466;11.068;2023-01-01T00:40:22;12.20;99.90
29917;DHT22;16786;49.466;11.068;2023-01-01T00:42:49;12.20;99.90
29917;DHT22;16786;49.466;11.068;2023-01-01T00:45:16;12.20;99.90
29917;DHT22;16786;49.466;11.068;2023-01-01T00:47:50;12.10;99.90
29917;DHT22;16786;49.466;11.068;2023-01-01T00:50:19;12.00;99.90
29917;DHT22;16786;49.466;11.068;2023-01-01T00:52:48;12.10;99.90
29917;DHT22;16786;49.466;11.068;2023-01-01T00:55:16;12.10;99.90
29917;DHT22;16786;49.466;11.068;2023-01-01T00:57:43;12.10;99.90
29917;DHT22;16786;49.466;11.068;2023-01-01T01:00:12;12.00;99.90
29917;DHT22;16786;49.466;11.068;2023-01-01T01:02:39;12.00;99.90
29917;DHT22;16786;49.466;11.068;2023-01-01T01:05:07;12.10;99.90
29917;DHT22;16786;49.466;11.068;2023-01-01T01:07:35;12.00;99.90
29917;DHT22;16786;49.466;11.068;2023-01-01T01:10:04;11.90;99.90
29917;DHT22;16786;49.466;11.068;2023-01-01T01:12:34;11.90;99.90
29917;DHT22;16786;49.466;11.068;2023-01-01T01:15:02;12.10;99.90
29917;DHT22;16786;49.466;11.068;2023-01-01T01:17:31;12.10;99.90
29917;DHT22;16786;49.466;11.068;2023-01-01T01:19:58;12.10;99.90
29917;DHT22;16786;49.466;11.068;2023-01-01T01:22:25;12.00;99.90
29917;DHT22;16786;49.466;11.068;2023-01-01T01:24:55;12.10;99.90
29917;DHT22;16786;49.466;11.068;2023-01-01T01:27:23;12.10;99.90
29917;DHT22;16786;49.466;11.068;2023-01-01T01:29:51;12.10;99.90
29917;DHT22;16786;49.466;11.068;2023-01-01T01:32:19;12.10;99.90
29917;DHT22;16786;49.466;11.068;2023-01-01T01:34:47;12.10;99.90
29917;DHT22;16786;49.466;11.068;2023-01-01T01:37:14;12.10;99.90
29917;DHT22;16786;49.466;11.068;2023-01-01T01:39:45;12.10;99.90
29917;DHT22;16786;49.466;11.068;2023-01-01T01:42:19;12.10;99.90
29917;DHT22;16786;49.466;11.068;2023-01-01T01:44:52;12.00;99.90
29917;DHT22;16786;49.466;11.068;2023-01-01T01:50:12;12.20;99.90
29917;DHT22;16786;49.466;11.068;2023-01-01T01:55:20;12.20;99.90
29917;DHT22;16786;49.466;11.068;2023-01-01T01:57:47;12.20;99.90
29917;DHT22;16786;49.466;11.068;2023-01-01T02:00:15;12.20;99.90
29917;DHT22;16786;49.466;11.068;2023-01-01T02:03:25;12.30;99.90
29917;DHT22;16786;49.466;11.068;2023-01-01T02:05:43;12.30;99.90
29917;DHT22;16786;49.466;11.068;2023-01-01T02:08:14;12.20;99.90
29917;DHT22;16786;49.466;11.068;2023-01-01T02:10:42;12.30;99.90
29917;DHT22;16786;49.466;11.068;2023-01-01T02:13:10;12.30;99.90
29917;DHT22;16786;49.466;11.068;2023-01-01T02:18:58;12.30;99.90
29917;DHT22;16786;49.466;11.068;2023-01-01T02:21:33;12.10;99.90
29917;DHT22;16786;49.466;11.068;2023-01-01T02:30:03;12.10;99.90
29917;DHT22;16786;49.466;11.068;2023-01-01T02:32:46;12.10;99.90
29917;DHT22;16786;49.466;11.068;2023-01-01T02:35:25;12.10;99.90
29917;DHT22;16786;49.466;11.068;2023-01-01T02:38:37;12.20;99.90
29917;DHT22;16786;49.466;11.068;2023-01-01T02:41:11;12.20;99.90
29917;DHT22;16786;49.466;11.068;2023-01-01T02:43:39;12.20;99.90
29917;DHT22;16786;49.466;11.068;2023-01-01T02:46:11;12.20;99.90
29917;DHT22;16786;49.466;11.068;2023-01-01T02:48:48;12.20;99.90
29917;DHT22;16786;49.466;11.068;2023-01-01T02:53:58;12.30;99.90
29917;DHT22;16786;49.466;11.068;2023-01-01T03:02:28;12.40;99.90
29917;DHT22;16786;49.466;11.068;2023-01-01T03:05:18;12.40;99.90
29917;DHT22;16786;49.466;11.068;2023-01-01T03:10:44;12.40;99.90
29917;DHT22;16786;49.466;11.068;2023-01-01T03:13:26;12.40;99.90
29917;DHT22;16786;49.466;11.068;2023-01-01T03:16:24;12.40;99.90
29917;DHT22;16786;49.466;11.068;2023-01-01T03:22:00;12.30;99.90
29917;DHT22;16786;49.466;11.068;2023-01-01T03:24:39;12.30;99.90
29917;DHT22;16786;49.466;11.068;2023-01-01T03:27:18;12.20;99.90
29917;DHT22;16786;49.466;11.068;2023-01-01T03:29:52;12.20;99.90
29917;DHT22;16786;49.466;11.068;2023-01-01T03:32:21;12.10;99.90
29917;DHT22;16786;49.466;11.068;2023-01-01T03:35:11;12.00;99.90
29917;DHT22;16786;49.466;11.068;2023-01-01T03:37:41;12.00;99.90
29917;DHT22;16786;49.466;11.068;2023-01-01T03:40:12;12.00;99.90
29917;DHT22;16786;49.466;11.068;2023-01-01T03:42:47;11.90;99.90
29917;DHT22;16786;49.466;11.068;2023-01-01T03:45:20;11.90;99.90
29917;DHT22;16786;49.466;11.068;2023-01-01T03:47:50;11.80;99.90
29917;DHT22;16786;49.466;11.068;2023-01-01T03:50:21;11.70;99.90
29917;DHT22;16786;49.466;11.068;2023-01-01T04:03:49;11.80;99.90
29917;DHT22;16786;49.466;11.068;2023-01-01T04:06:17;11.70;99.90
29917;DHT22;16786;49.466;11.068;2023-01-01T04:08:45;11.70;99.90
29917;DHT22;16786;49.466;11.068;2023-01-01T04:11:18;11.60;99.90
29917;DHT22;16786;49.466;11.068;2023-01-01T04:14:05;11.60;99.90
29917;DHT22;16786;49.466;11.068;2023-01-01T04:16:33;11.50;99.90
29917;DHT22;16786;49.466;11.068;2023-01-01T04:19:00;11.50;99.90
29917;DHT22;16786;49.466;11.068;2023-01-01T04:21:27;11.60;99.90
29917;DHT22;16786;49.466;11.068;2023-01-01T04:23:55;11.70;99.90
29917;DHT22;16786;49.466;11.068;2023-01-01T04:26:22;11.80;99.90
29917;DHT22;16786;49.466;11.068;2023-01-01T04:28:49;12.10;99.90
29917;DHT22;16786;49.466;11.068;2023-01-01T04:31:17;12.10;99.90
29917;DHT22;16786;49.466;11.068;2023-01-01T04:33:44;12.10;99.90
29917;DHT22;16786;49.466;11.068;2023-01-01T04:36:11;12.00;99.90
29917;DHT22;16786;49.466;11.068;2023-01-01T04:38:39;12.10;99.90
29917;DHT22;16786;49.466;11.068;2023-01-01T04:41:07;12.10;99.90
29917;DHT22;16786;49.466;11.068;2023-01-01T04:43:35;11.90;99.90
29917;DHT22;16786;49.466;11.068;2023-01-01T04:46:03;11.80;99.90
29917;DHT22;16786;49.466;11.068;2023-01-01T04:48:31;11.80;99.90
29917;DHT22;16786;49.466;11.068;2023-01-01T04:51:00;11.80;99.90
29917;DHT22;16786;49.466;11.068;2023-01-01T04:53:30;11.80;99.90
29917;DHT22;16786;49.466;11.068;2023-01-01T04:56:12;11.80;99.90
29917;DHT22;16786;49.466;11.068;2023-01-01T04:58:40;11.70;99.90
29917;DHT22;16786;49.466;11.068;2023-01-01T05:01:17;11.70;99.90
29917;DHT22;16786;49.466;11.068;2023-01-01T05:03:46;11.70;99.90
29917;DHT22;16786;49.466;11.068;2023-01-01T05:06:14;11.70;99.90
29917;DHT22;16786;49.466;11.068;2023-01-01T05:08:46;11.60;99.90
29917;DHT22;16786;49.466;11.068;2023-01-01T05:11:16;11.50;99.90
29917;DHT22;16786;49.466;11.068;2023-01-01T05:13:45;11.60;99.90
29917;DHT22;16786;49.466;11.068;2023-01-01T05:16:15;11.50;99.90
29917;DHT22;16786;49.466;11.068;2023-01-01T05:18:43;11.50;99.90
29917;DHT22;16786;49.466;11.068;2023-01-01T05:21:13;11.50;99.90
29917;DHT22;16786;49.466;11.068;2023-01-01T05:23:41;11.50;99.90
29917;DHT22;16786;49.466;11.068;2023-01-01T05:26:15;11.50;99.90
29917;DHT22;16786;49.466;11.068;2023-01-01T05:28:42;11.50;99.90
29917;DHT22;16786;49.466;11.068;2023-01-01T05:31:12;11.50;99.90
29917;DHT22;16786;49.466;11.068;2023-01-01T05:33:41;11.60;99.90
29917;DHT22;16786;49.466;11.068;2023-01-01T05:36:18;11.60;99.90
29917;DHT22;16786;49.466;11.068;2023-01-01T05:38:46;11.50;99.90
29917;DHT22;16786;49.466;11.068;2023-01-01T05:41:15;11.50;99.90
29917;DHT22;16786;49.466;11.068;2023-01-01T05:43:43;11.60;99.90
29917;DHT22;16786;49.466;11.068;2023-01-01T05:46:22;11.50;99.90
29917;DHT22;16786;49.466;11.068;2023-01-01T05:48:51;11.50;99.90
29917;DHT22;16786;49.466;11.068;2023-01-01T05:51:25;11.60;99.90
29917;DHT22;16786;49.466;11.068;2023-01-01T05:53:54;11.60;99.90
29917;DHT22;16786;49.466;11.068;2023-01-01T05:56:22;11.50;99.90
29917;DHT22;16786;49.466;11.068;2023-01-01T05:58:50;11.40;99.90
29917;DHT22;16786;49.466;11.068;2023-01-01T06:01:18;11.40;99.90
29917;DHT22;16786;49.466;11.068;2023-01-01T06:03:47;11.30;99.90
29917;DHT22;16786;49.466;11.068;2023-01-01T06:06:20;11.30;99.90
29917;DHT22;16786;49.466;11.068;2023-01-01T06:08:54;11.20;99.90
29917;DHT22;16786;49.466;11.068;2023-01-01T06:11:22;11.20;99.90
29917;DHT22;16786;49.466;11.068;2023-01-01T06:13:54;11.20;99.90
29917;DHT22;16786;49.466;11.068;2023-01-01T06:16:22;11.20;99.90
29917;DHT22;16786;49.466;11.068;2023-01-01T06:18:49;11.20;99.90
29917;DHT22;16786;49.466;11.068;2023-01-01T06:21:19;11.20;99.90
29917;DHT22;16786;49.466;11.068;2023-01-01T06:23:47;11.20;99.90
29917;DHT22;16786;49.466;11.068;2023-01-01T06:26:20;11.20;99.90
29917;DHT22;16786;49.466;11.068;2023-01-01T06:28:48;11.20;99.90
29917;DHT22;16786;49.466;11.068;2023-01-01T06:31:18;11.30;99.90
29917;DHT22;16786;49.466;11.068;2023-01-01T06:33:46;11.30;99.90
29917;DHT22;16786;49.466;11.068;2023-01-01T06:36:16;11.30;99.90
29917;DHT22;16786;49.466;11.068;2023-01-01T06:38:45;11.30;99.90
29917;DHT22;16786;49.466;11.068;2023-01-01T06:41:16;11.30;99.90
29917;DHT22;16786;49.466;11.068;2023-01-01T06:43:45;11.30;99.90
29917;DHT22;16786;49.466;11.068;2023-01-01T06:46:30;11.30;99.90
29917;DHT22;16786;49.466;11.068;2023-01-01T06:49:04;11.20;99.90
29917;DHT22;16786;49.466;11.068;2023-01-01T06:51:37;11.20;99.90
29917;DHT22;16786;49.466;11.068;2023-01-01T06:54:06;11.10;99.90
29917;DHT22;16786;49.466;11.068;2023-01-01T06:56:34;11.20;99.90
29917;DHT22;16786;49.466;11.068;2023-01-01T06:59:03;11.20;99.90
29917;DHT22;16786;49.466;11.068;2023-01-01T07:01:32;11.20;99.90
29917;DHT22;16786;49.466;11.068;2023-01-01T07:04:05;11.10;99.90
29917;DHT22;16786;49.466;11.068;2023-01-01T07:06:34;11.10;99.90
29917;DHT22;16786;49.466;11.068;2023-01-01T07:09:02;11.00;99.90
29917;DHT22;16786;49.466;11.068;2023-01-01T07:11:30;11.10;99.90
29917;DHT22;16786;49.466;11.068;2023-01-01T07:13:59;11.10;99.90
29917;DHT22;16786;49.466;11.068;2023-01-01T07:16:27;11.10;99.90
29917;DHT22;16786;49.466;11.068;2023-01-01T07:18:54;11.10;99.90
29917;DHT22;16786;49.466;11.068;2023-01-01T07:21:43;11.10;99.90
29917;DHT22;16786;49.466;11.068;2023-01-01T07:24:12;11.20;99.90
29917;DHT22;16786;49.466;11.068;2023-01-01T07:26:40;11.30;99.90
29917;DHT22;16786;49.466;11.068;2023-01-01T07:29:07;11.20;99.90
29917;DHT22;16786;49.466;11.068;2023-01-01T07:31:37;11.20;99.90
29917;DHT22;16786;49.466;11.068;2023-01-01T07:34:06;11.20;99.90
29917;DHT22;16786;49.466;11.068;2023-01-01T07:36:33;11.30;99.90
29917;DHT22;16786;49.466;11.068;2023-01-01T07:39:01;11.30;99.90
29917;DHT22;16786;49.466;11.068;2023-01-01T07:41:28;11.40;99.90
29917;DHT22;16786;49.466;11.068;2023-01-01T07:43:57;11.50;99.90
29917;DHT22;16786;49.466;11.068;2023-01-01T07:46:25;11.50;99.90
29917;DHT22;16786;49.466;11.068;2023-01-01T07:48:53;11.50;99.90
29917;DHT22;16786;49.466;11.068;2023-01-01T07:51:20;11.50;99.90
29917;DHT22;16786;49.466;11.068;2023-01-01T07:53:48;11.50;99.90
29917;DHT22;16786;49.466;11.068;2023-01-01T07:56:15;11.50;99.90
29917;DHT22;16786;49.466;11.068;2023-01-01T07:58:43;11.50;99.90
29917;DHT22;16786;49.466;11.068;2023-01-01T08:01:11;11.50;99.90
29917;DHT22;16786;49.466;11.068;2023-01-01T08:03:41;11.50;99.90
29917;DHT22;16786;49.466;11.068;2023-01-01T08:06:10;11.60;99.90
29917;DHT22;16786;49.466;11.068;2023-01-01T08:08:38;11.70;99.90
29917;DHT22;16786;49.466;11.068;2023-01-01T08:11:06;11.70;99.90
29917;DHT22;16786;49.466;11.068;2023-01-01T08:13:33;11.70;99.90
29917;DHT22;16786;49.466;11.068;2023-01-01T08:16:00;11.80;99.90
29917;DHT22;16786;49.466;11.068;2023-01-01T08:18:29;11.80;99.90
29917;DHT22;16786;49.466;11.068;2023-01-01T08:20:56;11.90;99.90
29917;DHT22;16786;49.466;11.068;2023-01-01T08:23:23;11.90;99.90
29917;DHT22;16786;49.466;11.068;2023-01-01T08:25:51;11.90;99.90
29917;DHT22;16786;49.466;11.068;2023-01-01T08:28:18;12.00;99.90
29917;DHT22;16786;49.466;11.068;2023-01-01T08:30:45;12.00;99.90
29917;DHT22;16786;49.466;11.068;2023-01-01T08:33:13;12.10;99.90
29917;DHT22;16786;49.466;11.068;2023-01-01T08:35:41;12.20;99.90
29917;DHT22;16786;49.466;11.068;2023-01-01T08:38:14;12.20;99.90
29917;DHT22;16786;49.466;11.068;2023-01-01T08:40:42;12.30;99.90
29917;DHT22;16786;49.466;11.068;2023-01-01T08:43:09;12.40;99.90
29917;DHT22;16786;49.466;11.068;2023-01-01T08:45:36;12.40;99.90
29917;DHT22;16786;49.466;11.068;2023-01-01T08:48:04;12.40;99.90
29917;DHT22;16786;49.466;11.068;2023-01-01T08:50:31;12.40;99.90
29917;DHT22;16786;49.466;11.068;2023-01-01T08:52:58;12.40;99.90
29917;DHT22;16786;49.466;11.068;2023-01-01T08:55:26;12.60;99.90
29917;DHT22;16786;49.466;11.068;2023-01-01T08:57:53;12.60;99.90
29917;DHT22;16786;49.466;11.068;2023-01-01T09:00:20;12.60;99.90
29917;DHT22;16786;49.466;11.068;2023-01-01T09:02:48;12.60;99.90
29917;DHT22;16786;49.466;11.068;2023-01-01T09:05:15;12.70;99.90
29917;DHT22;16786;49.466;11.068;2023-01-01T09:07:42;12.70;99.90
29917;DHT22;16786;49.466;11.068;2023-01-01T09:10:10;12.70;99.90
29917;DHT22;16786;49.466;11.068;2023-01-01T09:12:37;12.70;99.90
29917;DHT22;16786;49.466;11.068;2023-01-01T09:15:05;12.70;99.90
29917;DHT22;16786;49.466;11.068;2023-01-01T09:17:33;12.70;99.90
29917;DHT22;16786;49.466;11.068;2023-01-01T09:20:00;12.70;99.90
29917;DHT22;16786;49.466;11.068;2023-01-01T09:22:27;12.80;99.90
29917;DHT22;16786;49.466;11.068;2023-01-01T09:24:55;12.80;99.90
29917;DHT22;16786;49.466;11.068;2023-01-01T09:27:22;13.00;99.90
29917;DHT22;16786;49.466;11.068;2023-01-01T09:29:49;13.00;99.90
29917;DHT22;16786;49.466;11.068;2023-01-01T09:32:16;13.10;99.90
29917;DHT22;16786;49.466;11.068;2023-01-01T09:34:44;13.20;99.90
29917;DHT22;16786;49.466;11.068;2023-01-01T09:37:18;13.20;99.90
29917;DHT22;16786;49.466;11.068;2023-01-01T09:39:45;13.30;99.90
29917;DHT22;16786;49.466;11.068;2023-01-01T09:45:16;13.40;99.90
29917;DHT22;16786;49.466;11.068;2023-01-01T09:47:48;13.60;99.90
29917;DHT22;16786;49.466;11.068;2023-01-01T09:50:22;13.70;99.90
29917;DHT22;16786;49.466;11.068;2023-01-01T09:52:53;13.80;99.90
29917;DHT22;16786;49.466;11.068;2023-01-01T09:55:50;14.00;99.90
29917;DHT22;16786;49.466;11.068;2023-01-01T09:58:39;14.20;99.90
29917;DHT22;16786;49.466;11.068;2023-01-01T10:03:57;14.50;99.90
29917;DHT22;16786;49.466;11.068;2023-01-01T10:06:30;14.50;99.90
29917;DHT22;16786;49.466;11.068;2023-01-01T10:09:25;14.60;99.90
29917;DHT22;16786;49.466;11.068;2023-01-01T10:12:06;14.70;99.90
29917;DHT22;16786;49.466;11.068;2023-01-01T10:14:40;14.80;99.90
29917;DHT22;16786;49.466;11.068;2023-01-01T10:17:18;14.80;99.90
29917;DHT22;16786;49.466;11.068;2023-01-01T10:19:51;14.80;99.90
29917;DHT22;16786;49.466;11.068;2023-01-01T10:22:27;14.90;99.90
29917;DHT22;16786;49.466;11.068;2023-01-01T10:25:15;14.90;99.90
29917;DHT22;16786;49.466;11.068;2023-01-01T10:28:09;14.90;99.90
29917;DHT22;16786;49.466;11.068;2023-01-01T10:30:32;14.90;99.90
29917;DHT22;16786;49.466;11.068;2023-01-01T10:32:59;14.90;99.90
29917;DHT22;16786;49.466;11.068;2023-01-01T10:35:49;15.00;99.90
29917;DHT22;16786;49.466;11.068;2023-01-01T10:38:22;14.90;99.90
29917;DHT22;16786;49.466;11.068;2023-01-01T10:40:52;15.00;99.90
29917;DHT22;16786;49.466;11.068;2023-01-01T10:43:22;15.00;99.90
29917;DHT22;16786;49.466;11.068;2023-01-01T10:45:52;15.00;99.90
29917;DHT22;16786;49.466;11.068;2023-01-01T10:48:22;15.10;99.90
29917;DHT22;16786;49.466;11.068;2023-01-01T10:51:04;15.20;99.90
29917;DHT22;16786;49.466;11.068;2023-01-01T10:58:50;15.40;99.90
29917;DHT22;16786;49.466;11.068;2023-01-01T11:04:19;15.50;99.90
29917;DHT22;16786;49.466;11.068;2023-01-01T11:06:47;15.40;99.90
29917;DHT22;16786;49.466;11.068;2023-01-01T11:09:25;15.40;99.90
29917;DHT22;16786;49.466;11.068;2023-01-01T11:12:02;15.40;99.90
29917;DHT22;16786;49.466;11.068;2023-01-01T11:14:53;15.50;99.90
29917;DHT22;16786;49.466;11.068;2023-01-01T11:19:53;15.50;99.90
29917;DHT22;16786;49.466;11.068;2023-01-01T11:27:49;15.70;99.90
29917;DHT22;16786;49.466;11.068;2023-01-01T11:30:28;15.70;99.90
29917;DHT22;16786;49.466;11.068;2023-01-01T11:32:59;15.70;99.90
29917;DHT22;16786;49.466;11.068;2023-01-01T11:35:29;15.90;99.90
29917;DHT22;16786;49.466;11.068;2023-01-01T11:37:58;16.10;99.90
29917;DHT22;16786;49.466;11.068;2023-01-01T11:40:36;16.30;99.90
29917;DHT22;16786;49.466;11.068;2023-01-01T11:43:05;16.30;99.90
29917;DHT22;16786;49.466;11.068;2023-01-01T11:45:41;16.30;99.90
29917;DHT22;16786;49.466;11.068;2023-01-01T11:48:16;16.20;99.90
29917;DHT22;16786;49.466;11.068;2023-01-01T11:50:57;16.30;99.90
29917;DHT22;16786;49.466;11.068;2023-01-01T11:53:37;16.40;99.90
29917;DHT22;16786;49.466;11.068;2023-01-01T12:01:51;16.50;99.90
29917;DHT22;16786;49.466;11.068;2023-01-01T12:07:11;16.50;99.90
29917;DHT22;16786;49.466;11.068;2023-01-01T12:09:47;16.40;99.90
29917;DHT22;16786;49.466;11.068;2023-01-01T12:15:31;16.60;99.90
29917;DHT22;16786;49.466;11.068;2023-01-01T12:18:26;16.80;99.90
29917;DHT22;16786;49.466;11.068;2023-01-01T12:21:04;17.00;99.90
29917;DHT22;16786;49.466;11.068;2023-01-01T12:23:35;17.10;99.90
29917;DHT22;16786;49.466;11.068;2023-01-01T12:32:06;17.40;99.90
29917;DHT22;16786;49.466;11.068;2023-01-01T12:40:29;17.60;99.90
29917;DHT22;16786;49.466;11.068;2023-01-01T12:43:10;17.70;99.90
29917;DHT22;16786;49.466;11.068;2023-01-01T12:51:58;18.10;99.90
29917;DHT22;16786;49.466;11.068;2023-01-01T12:57:28;18.20;99.90
29917;DHT22;16786;49.466;11.068;2023-01-01T13:00:02;17.90;99.90
29917;DHT22;16786;49.466;11.068;2023-01-01T13:02:33;17.70;99.90
29917;DHT22;16786;49.466;11.068;2023-01-01T13:07:59;17.60;99.90
29917;DHT22;16786;49.466;11.068;2023-01-01T13:10:44;17.40;99.90
29917;DHT22;16786;49.466;11.068;2023-01-01T13:13:13;17.30;99.90
29917;DHT22;16786;49.466;11.068;2023-01-01T13:21:19;17.00;99.90
29917;DHT22;16786;49.466;11.068;2023-01-01T13:23:48;16.90;99.90
29917;DHT22;16786;49.466;11.068;2023-01-01T13:40:30;16.90;99.90
29917;DHT22;16786;49.466;11.068;2023-01-01T13:51:28;16.70;99.90
29917;DHT22;16786;49.466;11.068;2023-01-01T14:00:01;16.50;99.90
29917;DHT22;16786;49.466;11.068;2023-01-01T14:05:24;16.30;99.90
29917;DHT22;16786;49.466;11.068;2023-01-01T14:07:54;16.30;99.90
29917;DHT22;16786;49.466;11.068;2023-01-01T14:10:31;16.40;99.90
29917;DHT22;16786;49.466;11.068;2023-01-01T14:13:14;16.40;99.90
29917;DHT22;16786;49.466;11.068;2023-01-01T14:15:49;16.90;99.90
29917;DHT22;16786;49.466;11.068;2023-01-01T14:18:18;17.60;99.90
29917;DHT22;16786;49.466;11.068;2023-01-01T14:20:50;18.10;99.90
29917;DHT22;16786;49.466;11.068;2023-01-01T14:23:44;18.40;99.90
29917;DHT22;16786;49.466;11.068;2023-01-01T14:26:15;18.40;99.90
29917;DHT22;16786;49.466;11.068;2023-01-01T14:28:44;18.20;99.90
29917;DHT22;16786;49.466;11.068;2023-01-01T14:31:17;18.00;99.90
29917;DHT22;16786;49.466;11.068;2023-01-01T14:33:45;17.80;99.90
29917;DHT22;16786;49.466;11.068;2023-01-01T14:36:23;17.80;99.90
29917;DHT22;16786;49.466;11.068;2023-01-01T14:38:53;17.80;99.90
29917;DHT22;16786;49.466;11.068;2023-01-01T14:41:33;17.60;99.90
29917;DHT22;16786;49.466;11.068;2023-01-01T14:44:09;17.50;99.90
29917;DHT22;16786;49.466;11.068;2023-01-01T14:46:44;17.30;99.90
29917;DHT22;16786;49.466;11.068;2023-01-01T14:49:17;17.10;99.90
29917;DHT22;16786;49.466;11.068;2023-01-01T14:52:05;17.00;99.90
29917;DHT22;16786;49.466;11.068;2023-01-01T14:54:39;16.80;99.90
29917;DHT22;16786;49.466;11.068;2023-01-01T14:57:10;16.50;99.90
29917;DHT22;16786;49.466;11.068;2023-01-01T14:59:46;16.40;99.90
29917;DHT22;16786;49.466;11.068;2023-01-01T15:02:15;16.20;99.90
29917;DHT22;16786;49.466;11.068;2023-01-01T15:04:43;16.10;99.90
29917;DHT22;16786;49.466;11.068;2023-01-01T15:07:19;16.00;99.90
29917;DHT22;16786;49.466;11.068;2023-01-01T15:09:48;15.80;99.90
29917;DHT22;16786;49.466;11.068;2023-01-01T15:12:16;15.70;99.90
29917;DHT22;16786;49.466;11.068;2023-01-01T15:14:50;15.60;99.90
29917;DHT22;16786;49.466;11.068;2023-01-01T15:17:20;15.50;99.90
29917;DHT22;16786;49.466;11.068;2023-01-01T15:20:20;15.40;99.90
29917;DHT22;16786;49.466;11.068;2023-01-01T15:22:48;15.30;99.90
29917;DHT22;16786;49.466;11.068;2023-01-01T15:25:17;15.10;99.90
29917;DHT22;16786;49.466;11.068;2023-01-01T15:27:54;15.00;99.90
29917;DHT22;16786;49.466;11.068;2023-01-01T15:30:26;14.80;99.90
29917;DHT22;16786;49.466;11.068;2023-01-01T15:32:54;14.70;99.90
29917;DHT22;16786;49.466;11.068;2023-01-01T15:35:27;14.50;99.90
29917;DHT22;16786;49.466;11.068;2023-01-01T15:40:35;14.20;99.90
29917;DHT22;16786;49.466;11.068;2023-01-01T15:45:54;13.90;99.90
29917;DHT22;16786;49.466;11.068;2023-01-01T15:48:33;13.80;99.90
29917;DHT22;16786;49.466;11.068;2023-01-01T15:51:04;13.80;99.90
29917;DHT22;16786;49.466;11.068;2023-01-01T15:53:59;13.60;99.90
29917;DHT22;16786;49.466;11.068;2023-01-01T15:56:32;13.50;99.90
29917;DHT22;16786;49.466;11.068;2023-01-01T16:01:39;13.30;99.90
29917;DHT22;16786;49.466;11.068;2023-01-01T16:04:14;13.30;99.90
29917;DHT22;16786;49.466;11.068;2023-01-01T16:06:48;13.20;99.90
29917;DHT22;16786;49.466;11.068;2023-01-01T16:09:18;13.10;99.90
29917;DHT22;16786;49.466;11.068;2023-01-01T16:11:53;13.10;99.90
29917;DHT22;16786;49.466;11.068;2023-01-01T16:14:21;13.00;99.90
29917;DHT22;16786;49.466;11.068;2023-01-01T16:16:52;13.00;99.90
29917;DHT22;16786;49.466;11.068;2023-01-01T16:19:21;12.90;99.90
29917;DHT22;16786;49.466;11.068;2023-01-01T16:21:49;12.90;99.90
29917;DHT22;16786;49.466;11.068;2023-01-01T16:24:17;12.90;99.90
29917;DHT22;16786;49.466;11.068;2023-01-01T16:26:46;12.90;99.90
29917;DHT22;16786;49.466;11.068;2023-01-01T16:29:13;12.90;99.90
29917;DHT22;16786;49.466;11.068;2023-01-01T16:31:42;12.90;99.90
29917;DHT22;16786;49.466;11.068;2023-01-01T16:34:12;12.90;99.90
29917;DHT22;16786;49.466;11.068;2023-01-01T16:36:41;13.00;99.90
29917;DHT22;16786;49.466;11.068;2023-01-01T16:39:09;12.90;99.90
29917;DHT22;16786;49.466;11.068;2023-01-01T16:41:39;13.00;99.90
29917;DHT22;16786;49.466;11.068;2023-01-01T16:44:10;12.90;99.90
29917;DHT22;16786;49.466;11.068;2023-01-01T16:46:38;12.90;99.90
29917;DHT22;16786;49.466;11.068;2023-01-01T16:49:06;12.90;99.90
29917;DHT22;16786;49.466;11.068;2023-01-01T16:51:33;12.90;99.90
29917;DHT22;16786;49.466;11.068;2023-01-01T16:54:01;12.90;99.90
29917;DHT22;16786;49.466;11.068;2023-01-01T16:56:29;12.80;99.90
29917;DHT22;16786;49.466;11.068;2023-01-01T16:58:56;12.80;99.90
29917;DHT22;16786;49.466;11.068;2023-01-01T17:01:42;12.80;99.90
29917;DHT22;16786;49.466;11.068;2023-01-01T17:04:11;12.70;99.90
29917;DHT22;16786;49.466;11.068;2023-01-01T17:06:39;12.70;99.90
29917;DHT22;16786;49.466;11.068;2023-01-01T17:09:06;12.60;99.90
29917;DHT22;16786;49.466;11.068;2023-01-01T17:11:35;12.60;99.90
29917;DHT22;16786;49.466;11.068;2023-01-01T17:14:02;12.60;99.90
29917;DHT22;16786;49.466;11.068;2023-01-01T17:16:32;12.60;99.90
29917;DHT22;16786;49.466;11.068;2023-01-01T17:19:06;12.50;99.90
29917;DHT22;16786;49.466;11.068;2023-01-01T17:21:45;12.50;99.90
29917;DHT22;16786;49.466;11.068;2023-01-01T17:24:14;12.40;99.90
29917;DHT22;16786;49.466;11.068;2023-01-01T17:26:41;12.40;99.90
29917;DHT22;16786;49.466;11.068;2023-01-01T17:29:09;12.40;99.90
29917;DHT22;16786;49.466;11.068;2023-01-01T17:31:37;12.40;99.90
29917;DHT22;16786;49.466;11.068;2023-01-01T17:34:04;12.30;99.90
29917;DHT22;16786;49.466;11.068;2023-01-01T17:36:31;12.20;99.90
29917;DHT22;16786;49.466;11.068;2023-01-01T17:38:59;12.20;99.90
29917;DHT22;16786;49.466;11.068;2023-01-01T17:41:26;12.20;99.90
29917;DHT22;16786;49.466;11.068;2023-01-01T17:43:55;12.10;99.90
29917;DHT22;16786;49.466;11.068;2023-01-01T17:46:25;12.00;99.90
29917;DHT22;16786;49.466;11.068;2023-01-01T17:48:53;12.00;99.90
29917;DHT22;16786;49.466;11.068;2023-01-01T17:51:21;11.90;99.90
29917;DHT22;16786;49.466;11.068;2023-01-01T17:53:48;11.80;99.90
29917;DHT22;16786;49.466;11.068;2023-01-01T17:56:17;11.90;99.90
29917;DHT22;16786;49.466;11.068;2023-01-01T17:58:46;11.80;99.90
29917;DHT22;16786;49.466;11.068;2023-01-01T18:03:45;11.70;99.90
29917;DHT22;16786;49.466;11.068;2023-01-01T18:06:12;11.70;99.90